DucheSS Of Scandinavia — OUZI2 — position and weather

sailwx.info

Track history (hours):
 
Tides and Currents Weather Stations Pressure Air Temp Water Temp Dewpoint Dewpoint Depression Visibility Wind Speed Wind Dir Waves Ship Positions

DucheSS Of Scandinavia

Operator: DFDS A/S

Last reported at 2016-Dec-07 17:34 UTC. Time now 2016-Dec-07 18:22 UTC.
Position N 58°56' E 011°09'.

Length 134 m; draft 5.2 m.

Type: Passenger vessel. MMSI: 219002929.

Date/timePositionNaut miles runAvg speedWind from/ knotsBaromVisibWave heightAir tempDewpointWater temp
2016-Dec-07 17:34N 58°56' E 011°09'2 2.3
2016-Dec-07 16:33N 58°57' E 011°05'1414.3
2016-Dec-07 15:34N 59°01' E 010°38'1313.2
2016-Dec-07 14:34N 59°06' E 010°14'2 1.9
2016-Dec-07 13:33N 59°08' E 010°14'10 9.8
2016-Dec-07 12:33N 59°01' E 010°27'1414.3
2016-Dec-07 11:34N 59°00' E 010°55'9 9.0
2016-Dec-07 10:33N 58°56' E 011°10'5 5.0
2016-Dec-07 09:34N 58°58' E 011°02'1515.3
2016-Dec-07 08:34N 59°01' E 010°32'1211.7
2016-Dec-07 07:34N 59°07' E 010°14'1 1.1
2016-Dec-07 06:34N 59°06' E 010°14'0 0.1
2016-Dec-07 05:34N 59°06' E 010°14'0 0.0
2016-Dec-07 04:31N 59°06' E 010°14'0 0.0
2016-Dec-07 03:32N 59°06' E 010°14'0 0.0
2016-Dec-07 02:30N 59°06' E 010°14'0 0.0
2016-Dec-07 01:33N 59°06' E 010°14'0 0.0
2016-Dec-07 00:31N 59°06' E 010°14'0 0.0
2016-Dec-06 23:32N 59°06' E 010°14'0 0.0
2016-Dec-06 22:32N 59°06' E 010°14'0 0.0
2016-Dec-06 21:34N 59°06' E 010°14'1 1.4
2016-Dec-06 20:34N 59°08' E 010°14'15 7.3
2016-Dec-06 18:34N 59°01' E 010°39'1615.7
2016-Dec-06 17:34N 58°56' E 011°08'2 1.6
2016-Dec-06 16:34N 58°56' E 011°05'1414.3
2016-Dec-06 15:34N 59°01' E 010°39'1313.1
2016-Dec-06 14:33N 59°05' E 010°14'2 2.3
2016-Dec-06 13:34N 59°08' E 010°14'1010.2
2016-Dec-06 12:34N 59°01' E 010°28'1515.1
2016-Dec-06 11:34N 58°60' E 010°57'8 7.7
2016-Dec-06 10:34N 58°56' E 011°10'5 5.1
2016-Dec-06 09:34N 58°58' E 011°01'1515.3
2016-Dec-06 08:33N 59°01' E 010°32'1211.7
2016-Dec-06 07:34N 59°07' E 010°14'1 1.2
2016-Dec-06 06:34N 59°06' E 010°14'0 0.1
2016-Dec-06 05:33N 59°06' E 010°14'0 0.0
2016-Dec-06 04:31N 59°06' E 010°14'0 0.0
2016-Dec-06 03:31N 59°06' E 010°14'0 0.0
2016-Dec-06 02:32N 59°06' E 010°14'0 0.0
2016-Dec-06 01:33N 59°06' E 010°14'0 0.0
2016-Dec-06 00:33N 59°06' E 010°14'0 0.0
2016-Dec-05 23:31N 59°06' E 010°14'0 0.0
2016-Dec-05 22:32N 59°06' E 010°14'0 0.0
2016-Dec-05 21:33N 59°06' E 010°14'0 0.0
2016-Dec-05 20:34N 59°06' E 010°14'1 1.1
2016-Dec-05 19:34N 59°05' E 010°14'1414.2
2016-Dec-05 18:34N 59°01' E 010°41'1515.4
2016-Dec-05 17:33N 58°56' E 011°09'2 2.4
2016-Dec-05 16:34N 58°56' E 011°05'1514.8
2016-Dec-05 15:34N 59°01' E 010°38'1312.8
2016-Dec-05 14:34N 59°06' E 010°14'2 2.0
2016-Dec-05 13:33N 59°08' E 010°14'10 9.7
2016-Dec-05 12:34N 59°01' E 010°27'1515.2
2016-Dec-05 11:34N 59°00' E 010°57'8 8.2
2016-Dec-05 10:34N 58°56' E 011°10'5 5.0
2016-Dec-05 09:34N 58°58' E 011°02'1515.2
2016-Dec-05 08:34N 59°00' E 010°32'1211.8
2016-Dec-05 07:33N 59°07' E 010°14'1 1.1
2016-Dec-05 06:33N 59°06' E 010°14'0 0.1
2016-Dec-05 05:31N 59°06' E 010°14'0 0.0
2016-Dec-05 04:31N 59°06' E 010°14'0 0.0
2016-Dec-05 03:32N 59°06' E 010°14'0 0.0
2016-Dec-05 02:33N 59°06' E 010°14'0 0.0
2016-Dec-05 01:33N 59°06' E 010°14'0 0.0
2016-Dec-05 00:31N 59°06' E 010°14'0 0.0
2016-Dec-04 23:32N 59°06' E 010°14'0 0.0
2016-Dec-04 22:29N 59°06' E 010°14'0 0.0
2016-Dec-04 21:33N 59°06' E 010°14'1 0.6
2016-Dec-04 20:34N 59°07' E 010°14'2 1.7
2016-Dec-04 19:34N 59°05' E 010°14'1413.9
2016-Dec-04 18:34N 59°01' E 010°40'1514.8
2016-Dec-04 17:34N 58°56' E 011°07'1 1.2
2016-Dec-04 16:33N 58°56' E 011°05'1414.3
2016-Dec-04 15:33N 59°01' E 010°39'1413.5
2016-Dec-04 14:33N 59°06' E 010°14'2 1.7
2016-Dec-04 13:34N 59°08' E 010°14'10 9.5
2016-Dec-04 12:34N 59°01' E 010°27'1414.4
2016-Dec-04 11:33N 59°00' E 010°55'9 9.1
2016-Dec-04 10:34N 58°56' E 011°10'5 4.7
2016-Dec-04 09:34N 58°58' E 011°02'1514.8
2016-Dec-04 08:34N 59°01' E 010°34'1212.2
2016-Dec-04 07:34N 59°07' E 010°14'1 0.9
2016-Dec-04 06:34N 59°06' E 010°14'0 0.0
2016-Dec-04 05:34N 59°06' E 010°14'0 0.0
2016-Dec-04 04:34N 59°06' E 010°14'0 0.0
2016-Dec-04 03:34N 59°06' E 010°14'0 0.0
2016-Dec-04 02:34N 59°06' E 010°14'0 0.0
2016-Dec-04 01:34N 59°06' E 010°14'0 0.0
2016-Dec-04 00:34N 59°06' E 010°14'0 0.0
2016-Dec-03 23:34N 59°06' E 010°14'0 0.0
2016-Dec-03 22:34N 59°06' E 010°14'0 0.0
2016-Dec-03 21:34N 59°06' E 010°14'1 0.7
2016-Dec-03 20:34N 59°07' E 010°14'4 4.1
2016-Dec-03 19:34N 59°03' E 010°15'1514.8
2016-Dec-03 18:34N 59°02' E 010°44'1414.0
2016-Dec-03 17:34N 58°56' E 011°08'2 2.1
2016-Dec-03 16:34N 58°56' E 011°05'1514.7
2016-Dec-03 15:33N 59°01' E 010°37'1313.1
2016-Dec-03 14:34N 59°06' E 010°14'2 1.5
2016-Dec-03 13:34N 59°08' E 010°14'10 9.6
2016-Dec-03 12:34N 59°01' E 010°27'1414.5
2016-Dec-03 11:34N 59°00' E 010°55'9 9.0
2016-Dec-03 10:34N 58°56' E 011°10'5 5.2
2016-Dec-03 09:34N 58°58' E 011°01'1515.1
2016-Dec-03 08:34N 59°01' E 010°32'1211.7
2016-Dec-03 07:33N 59°07' E 010°14'0 0.2
2016-Dec-03 06:33N 59°07' E 010°14'1 1.3
2016-Dec-03 05:31N 59°06' E 010°14'0 0.0
2016-Dec-03 04:33N 59°06' E 010°14'0 0.0
2016-Dec-03 03:33N 59°06' E 010°14'0 0.0
2016-Dec-03 02:33N 59°06' E 010°14'0 0.0
2016-Dec-03 01:33N 59°06' E 010°14'0 0.0
2016-Dec-03 00:33N 59°06' E 010°14'0 0.0
2016-Dec-02 23:32N 59°06' E 010°14'0 0.0
2016-Dec-02 22:34N 59°06' E 010°14'0 0.0
2016-Dec-02 21:34N 59°06' E 010°14'0 0.0
2016-Dec-02 20:33N 59°06' E 010°14'1 0.9
2016-Dec-02 19:34N 59°05' E 010°14'1413.8
2016-Dec-02 18:34N 59°01' E 010°40'1515.3
2016-Dec-02 17:33N 58°56' E 011°08'2 1.5
2016-Dec-02 16:33N 58°56' E 011°05'1414.4
2016-Dec-02 15:33N 59°01' E 010°39'1313.5
2016-Dec-02 14:34N 59°06' E 010°14'2 2.1
2016-Dec-02 13:34N 59°08' E 010°14'9 9.5
2016-Dec-02 12:34N 59°01' E 010°27'1514.6
2016-Dec-02 11:34N 59°00' E 010°55'9 8.9
2016-Dec-02 10:33N 58°56' E 011°10'5 5.5
2016-Dec-02 09:33N 58°59' E 011°01'1615.5
2016-Dec-02 08:33N 59°00' E 010°31'10 9.6
2016-Dec-02 07:31N 59°01' E 010°51'2020.4
2016-Dec-02 06:33N 59°06' E 010°14'0 0.0
2016-Dec-02 05:33N 59°06' E 010°14'0 0.0
2016-Dec-02 04:31N 59°06' E 010°14'0 0.0
2016-Dec-02 03:32N 59°06' E 010°14'0 0.0
2016-Dec-02 02:16N 59°06' E 010°14'2 2.4
2016-Dec-02 01:33N 59°05' E 010°15'3 2.8
2016-Dec-02 00:27N 59°08' E 010°14'1 1.6
2016-Dec-01 23:33N 59°06' E 010°14'0 0.0
2016-Dec-01 22:33N 59°06' E 010°14'0 0.0
2016-Dec-01 21:33N 59°06' E 010°14'0 0.0
2016-Dec-01 20:34N 59°06' E 010°14'2 1.7
2016-Dec-01 19:34N 59°05' E 010°15'1414.1
2016-Dec-01 18:33N 59°01' E 010°41'1514.8
2016-Dec-01 17:34N 58°56' E 011°08'2 1.9
2016-Dec-01 16:34N 58°57' E 011°05'1514.7
2016-Dec-01 15:33N 59°01' E 010°37'1312.7
2016-Dec-01 14:34N 59°05' E 010°14'2 2.1
2016-Dec-01 13:34N 59°08' E 010°14'1010.2
2016-Dec-01 12:34N 59°00' E 010°27'1514.8
2016-Dec-01 11:33N 59°00' E 010°56'8 8.3
2016-Dec-01 10:34N 58°56' E 011°10'5 5.2
2016-Dec-01 09:33N 58°58' E 011°01'1515.1
2016-Dec-01 08:34N 59°01' E 010°32'1211.7
2016-Dec-01 07:34N 59°07' E 010°14'1 1.1
2016-Dec-01 06:33N 59°06' E 010°14'2928.8
2016-Dec-01 05:32N 58°56' E 011°08'1 1.3
2016-Dec-01 04:33N 58°56' E 011°10'11 8.1
2016-Dec-01 03:10N 59°01' E 010°51'610.3
2016-Dec-01 02:32N 59°01' E 010°38'1010.1
2016-Dec-01 01:33N 59°01' E 010°19'7 7.0
2016-Dec-01 00:33N 59°08' E 010°14'0 0.0
2016-Nov-30 23:33N 59°08' E 010°14'6 6.1
2016-Nov-30 22:33N 59°02' E 010°16'5 4.7
2016-Nov-30 21:34N 59°06' E 010°14'0 0.1
2016-Nov-30 20:34N 59°06' E 010°14'2 2.0
2016-Nov-30 19:33N 59°04' E 010°15'1414.4
2016-Nov-30 18:34N 59°01' E 010°42'1514.6
2016-Nov-30 17:33N 58°56' E 011°08'1 1.3
2016-Nov-30 16:33N 58°56' E 011°06'1514.9
2016-Nov-30 15:34N 59°01' E 010°39'1313.4
2016-Nov-30 14:34N 59°06' E 010°14'2 1.9
2016-Nov-30 13:34N 59°08' E 010°14'1010.0
2016-Nov-30 12:33N 59°01' E 010°28'1514.6
2016-Nov-30 11:34N 59°00' E 010°56'8 8.4
2016-Nov-30 10:34N 58°56' E 011°10'5 4.9
2016-Nov-30 09:33N 58°58' E 011°02'1514.7
2016-Nov-30 08:33N 59°01' E 010°34'1212.1
2016-Nov-30 07:33N 59°07' E 010°14'1 0.7
2016-Nov-30 06:33N 59°06' E 010°14'0 0.1
2016-Nov-30 05:33N 59°06' E 010°14'0 0.0
2016-Nov-30 04:34N 59°06' E 010°14'0 0.0
2016-Nov-30 03:33N 59°06' E 010°14'0 0.0
2016-Nov-30 02:33N 59°06' E 010°14'0 0.0
2016-Nov-30 01:33N 59°06' E 010°14'0 0.0
2016-Nov-30 00:33N 59°06' E 010°14'0 0.0
2016-Nov-29 23:33N 59°06' E 010°14'1 1.2
2016-Nov-29 22:32N 59°07' E 010°14'2 1.7
2016-Nov-29 21:33N 59°06' E 010°14'1 0.9
2016-Nov-29 20:34N 59°07' E 010°14'4 3.9
2016-Nov-29 19:34N 59°03' E 010°15'1414.4
2016-Nov-29 18:34N 59°02' E 010°43'1414.2
2016-Nov-29 17:34N 58°56' E 011°08'2 1.7
2016-Nov-29 16:34N 58°56' E 011°05'1414.2
2016-Nov-29 15:34N 59°01' E 010°39'1413.6
2016-Nov-29 14:34N 59°05' E 010°14'2 2.2
2016-Nov-29 13:34N 59°08' E 010°14'10 9.7
2016-Nov-29 12:33N 59°01' E 010°27'1514.7
2016-Nov-29 11:34N 59°00' E 010°56'9 8.8
2016-Nov-29 10:33N 58°56' E 011°10'5 5.0
2016-Nov-29 09:33N 58°58' E 011°02'1514.7
2016-Nov-29 08:34N 59°01' E 010°33'1212.0
2016-Nov-29 07:33N 59°07' E 010°14'1 0.9
2016-Nov-29 06:34N 59°06' E 010°14'1211.5
2016-Nov-29 05:33N 59°01' E 010°34'1210.8
2016-Nov-29 04:29N 59°06' E 010°14'1 1.5
2016-Nov-29 03:33N 59°08' E 010°14'1 1.4
2016-Nov-29 02:33N 59°06' E 010°14'0 0.0
2016-Nov-29 01:33N 59°06' E 010°14'0 0.0
2016-Nov-29 00:32N 59°06' E 010°14'0 0.0
2016-Nov-28 23:34N 59°06' E 010°14'0 0.0
2016-Nov-28 22:33N 59°06' E 010°14'0 0.0
2016-Nov-28 21:33N 59°06' E 010°14'0 0.0
2016-Nov-28 20:33N 59°06' E 010°14'1 1.2
2016-Nov-28 19:33N 59°05' E 010°15'1414.0
2016-Nov-28 18:34N 59°01' E 010°41'1514.7
2016-Nov-28 17:33N 58°56' E 011°08'1 1.2
2016-Nov-28 16:34N 58°56' E 011°05'1414.4
2016-Nov-28 15:33N 59°01' E 010°39'1313.2
2016-Nov-28 14:33N 59°05' E 010°14'2 2.5
2016-Nov-28 13:34N 59°08' E 010°14'10 9.6
2016-Nov-28 12:34N 59°01' E 010°27'1515.0
2016-Nov-28 11:33N 59°00' E 010°56'8 8.5
2016-Nov-28 10:33N 58°56' E 011°10'5 4.7
2016-Nov-28 09:34N 58°58' E 011°02'1414.1
2016-Nov-28 08:34N 59°01' E 010°35'1312.6
2016-Nov-28 07:34N 59°07' E 010°14'1 0.7
2016-Nov-28 06:34N 59°06' E 010°14'1414.4
2016-Nov-28 05:33N 59°01' E 010°40'1410.0
2016-Nov-28 04:07N 59°06' E 010°14'1 2.5
2016-Nov-28 03:33N 59°08' E 010°14'0 0.0
2016-Nov-28 02:32N 59°08' E 010°14'31 7.9
2016-Nov-27 22:33N 58°56' E 011°10'0 0.1
2016-Nov-27 21:33N 58°56' E 011°10'3131.0
2016-Nov-27 20:34N 59°06' E 010°14'1 1.3
2016-Nov-27 19:34N 59°05' E 010°15'1413.9
2016-Nov-27 18:34N 59°01' E 010°41'  
Track history (hours):
 
Tides and Currents Weather Stations Pressure Air Temp Water Temp Dewpoint Dewpoint Depression Visibility Wind Speed Wind Dir Waves Ship Positions

DucheSS Of Scandinavia

Operator: DFDS A/S

Last reported at 2016-Dec-07 17:34 UTC. Time now 2016-Dec-07 18:22 UTC.
Position N 58°56' E 011°09'.

Length 134 m; draft 5.2 m.

Type: Passenger vessel. MMSI: 219002929.

Date/timePositionNaut miles runAvg speedWind from/ knotsBaromVisibWave heightAir tempDewpointWater temp
2016-Dec-07 17:34N 58°56' E 011°09'2 2.3
2016-Dec-07 16:33N 58°57' E 011°05'1414.3
2016-Dec-07 15:34N 59°01' E 010°38'1313.2
2016-Dec-07 14:34N 59°06' E 010°14'2 1.9
2016-Dec-07 13:33N 59°08' E 010°14'10 9.8
2016-Dec-07 12:33N 59°01' E 010°27'1414.3
2016-Dec-07 11:34N 59°00' E 010°55'9 9.0
2016-Dec-07 10:33N 58°56' E 011°10'5 5.0
2016-Dec-07 09:34N 58°58' E 011°02'1515.3
2016-Dec-07 08:34N 59°01' E 010°32'1211.7
2016-Dec-07 07:34N 59°07' E 010°14'1 1.1
2016-Dec-07 06:34N 59°06' E 010°14'0 0.1
2016-Dec-07 05:34N 59°06' E 010°14'0 0.0
2016-Dec-07 04:31N 59°06' E 010°14'0 0.0
2016-Dec-07 03:32N 59°06' E 010°14'0 0.0
2016-Dec-07 02:30N 59°06' E 010°14'0 0.0
2016-Dec-07 01:33N 59°06' E 010°14'0 0.0
2016-Dec-07 00:31N 59°06' E 010°14'0 0.0
2016-Dec-06 23:32N 59°06' E 010°14'0 0.0
2016-Dec-06 22:32N 59°06' E 010°14'0 0.0
2016-Dec-06 21:34N 59°06' E 010°14'1 1.4
2016-Dec-06 20:34N 59°08' E 010°14'15 7.3
2016-Dec-06 18:34N 59°01' E 010°39'1615.7
2016-Dec-06 17:34N 58°56' E 011°08'2 1.6
2016-Dec-06 16:34N 58°56' E 011°05'1414.3
2016-Dec-06 15:34N 59°01' E 010°39'1313.1
2016-Dec-06 14:33N 59°05' E 010°14'2 2.3
2016-Dec-06 13:34N 59°08' E 010°14'1010.2
2016-Dec-06 12:34N 59°01' E 010°28'1515.1
2016-Dec-06 11:34N 58°60' E 010°57'8 7.7
2016-Dec-06 10:34N 58°56' E 011°10'5 5.1
2016-Dec-06 09:34N 58°58' E 011°01'1515.3
2016-Dec-06 08:33N 59°01' E 010°32'1211.7
2016-Dec-06 07:34N 59°07' E 010°14'1 1.2
2016-Dec-06 06:34N 59°06' E 010°14'0 0.1
2016-Dec-06 05:33N 59°06' E 010°14'0 0.0
2016-Dec-06 04:31N 59°06' E 010°14'0 0.0
2016-Dec-06 03:31N 59°06' E 010°14'0 0.0
2016-Dec-06 02:32N 59°06' E 010°14'0 0.0
2016-Dec-06 01:33N 59°06' E 010°14'0 0.0
2016-Dec-06 00:33N 59°06' E 010°14'0 0.0
2016-Dec-05 23:31N 59°06' E 010°14'0 0.0
2016-Dec-05 22:32N 59°06' E 010°14'0 0.0
2016-Dec-05 21:33N 59°06' E 010°14'0 0.0
2016-Dec-05 20:34N 59°06' E 010°14'1 1.1
2016-Dec-05 19:34N 59°05' E 010°14'1414.2
2016-Dec-05 18:34N 59°01' E 010°41'1515.4
2016-Dec-05 17:33N 58°56' E 011°09'2 2.4
2016-Dec-05 16:34N 58°56' E 011°05'1514.8
2016-Dec-05 15:34N 59°01' E 010°38'1312.8
2016-Dec-05 14:34N 59°06' E 010°14'2 2.0
2016-Dec-05 13:33N 59°08' E 010°14'10 9.7
2016-Dec-05 12:34N 59°01' E 010°27'1515.2
2016-Dec-05 11:34N 59°00' E 010°57'8 8.2
2016-Dec-05 10:34N 58°56' E 011°10'5 5.0
2016-Dec-05 09:34N 58°58' E 011°02'1515.2
2016-Dec-05 08:34N 59°00' E 010°32'1211.8
2016-Dec-05 07:33N 59°07' E 010°14'1 1.1
2016-Dec-05 06:33N 59°06' E 010°14'0 0.1
2016-Dec-05 05:31N 59°06' E 010°14'0 0.0
2016-Dec-05 04:31N 59°06' E 010°14'0 0.0
2016-Dec-05 03:32N 59°06' E 010°14'0 0.0
2016-Dec-05 02:33N 59°06' E 010°14'0 0.0
2016-Dec-05 01:33N 59°06' E 010°14'0 0.0
2016-Dec-05 00:31N 59°06' E 010°14'0 0.0
2016-Dec-04 23:32N 59°06' E 010°14'0 0.0
2016-Dec-04 22:29N 59°06' E 010°14'0 0.0
2016-Dec-04 21:33N 59°06' E 010°14'1 0.6
2016-Dec-04 20:34N 59°07' E 010°14'2 1.7
2016-Dec-04 19:34N 59°05' E 010°14'1413.9
2016-Dec-04 18:34N 59°01' E 010°40'1514.8
2016-Dec-04 17:34N 58°56' E 011°07'1 1.2
2016-Dec-04 16:33N 58°56' E 011°05'1414.3
2016-Dec-04 15:33N 59°01' E 010°39'1413.5
2016-Dec-04 14:33N 59°06' E 010°14'2 1.7
2016-Dec-04 13:34N 59°08' E 010°14'10 9.5
2016-Dec-04 12:34N 59°01' E 010°27'1414.4
2016-Dec-04 11:33N 59°00' E 010°55'9 9.1
2016-Dec-04 10:34N 58°56' E 011°10'5 4.7
2016-Dec-04 09:34N 58°58' E 011°02'1514.8
2016-Dec-04 08:34N 59°01' E 010°34'1212.2
2016-Dec-04 07:34N 59°07' E 010°14'1 0.9
2016-Dec-04 06:34N 59°06' E 010°14'0 0.0
2016-Dec-04 05:34N 59°06' E 010°14'0 0.0
2016-Dec-04 04:34N 59°06' E 010°14'0 0.0
2016-Dec-04 03:34N 59°06' E 010°14'0 0.0
2016-Dec-04 02:34N 59°06' E 010°14'0 0.0
2016-Dec-04 01:34N 59°06' E 010°14'0 0.0
2016-Dec-04 00:34N 59°06' E 010°14'0 0.0
2016-Dec-03 23:34N 59°06' E 010°14'0 0.0
2016-Dec-03 22:34N 59°06' E 010°14'0 0.0
2016-Dec-03 21:34N 59°06' E 010°14'1 0.7
2016-Dec-03 20:34N 59°07' E 010°14'4 4.1
2016-Dec-03 19:34N 59°03' E 010°15'1514.8
2016-Dec-03 18:34N 59°02' E 010°44'1414.0
2016-Dec-03 17:34N 58°56' E 011°08'2 2.1
2016-Dec-03 16:34N 58°56' E 011°05'1514.7
2016-Dec-03 15:33N 59°01' E 010°37'1313.1
2016-Dec-03 14:34N 59°06' E 010°14'2 1.5
2016-Dec-03 13:34N 59°08' E 010°14'10 9.6
2016-Dec-03 12:34N 59°01' E 010°27'1414.5
2016-Dec-03 11:34N 59°00' E 010°55'9 9.0
2016-Dec-03 10:34N 58°56' E 011°10'5 5.2
2016-Dec-03 09:34N 58°58' E 011°01'1515.1
2016-Dec-03 08:34N 59°01' E 010°32'1211.7
2016-Dec-03 07:33N 59°07' E 010°14'0 0.2
2016-Dec-03 06:33N 59°07' E 010°14'1 1.3
2016-Dec-03 05:31N 59°06' E 010°14'0 0.0
2016-Dec-03 04:33N 59°06' E 010°14'0 0.0
2016-Dec-03 03:33N 59°06' E 010°14'0 0.0
2016-Dec-03 02:33N 59°06' E 010°14'0 0.0
2016-Dec-03 01:33N 59°06' E 010°14'0 0.0
2016-Dec-03 00:33N 59°06' E 010°14'0 0.0
2016-Dec-02 23:32N 59°06' E 010°14'0 0.0
2016-Dec-02 22:34N 59°06' E 010°14'0 0.0
2016-Dec-02 21:34N 59°06' E 010°14'0 0.0
2016-Dec-02 20:33N 59°06' E 010°14'1 0.9
2016-Dec-02 19:34N 59°05' E 010°14'1413.8
2016-Dec-02 18:34N 59°01' E 010°40'1515.3
2016-Dec-02 17:33N 58°56' E 011°08'2 1.5
2016-Dec-02 16:33N 58°56' E 011°05'1414.4
2016-Dec-02 15:33N 59°01' E 010°39'1313.5
2016-Dec-02 14:34N 59°06' E 010°14'2 2.1
2016-Dec-02 13:34N 59°08' E 010°14'9 9.5
2016-Dec-02 12:34N 59°01' E 010°27'1514.6
2016-Dec-02 11:34N 59°00' E 010°55'9 8.9
2016-Dec-02 10:33N 58°56' E 011°10'5 5.5
2016-Dec-02 09:33N 58°59' E 011°01'1615.5
2016-Dec-02 08:33N 59°00' E 010°31'10 9.6
2016-Dec-02 07:31N 59°01' E 010°51'2020.4
2016-Dec-02 06:33N 59°06' E 010°14'0 0.0
2016-Dec-02 05:33N 59°06' E 010°14'0 0.0
2016-Dec-02 04:31N 59°06' E 010°14'0 0.0
2016-Dec-02 03:32N 59°06' E 010°14'0 0.0
2016-Dec-02 02:16N 59°06' E 010°14'2 2.4
2016-Dec-02 01:33N 59°05' E 010°15'3 2.8
2016-Dec-02 00:27N 59°08' E 010°14'1 1.6
2016-Dec-01 23:33N 59°06' E 010°14'0 0.0
2016-Dec-01 22:33N 59°06' E 010°14'0 0.0
2016-Dec-01 21:33N 59°06' E 010°14'0 0.0
2016-Dec-01 20:34N 59°06' E 010°14'2 1.7
2016-Dec-01 19:34N 59°05' E 010°15'1414.1
2016-Dec-01 18:33N 59°01' E 010°41'1514.8
2016-Dec-01 17:34N 58°56' E 011°08'2 1.9
2016-Dec-01 16:34N 58°57' E 011°05'1514.7
2016-Dec-01 15:33N 59°01' E 010°37'1312.7
2016-Dec-01 14:34N 59°05' E 010°14'2 2.1
2016-Dec-01 13:34N 59°08' E 010°14'1010.2
2016-Dec-01 12:34N 59°00' E 010°27'1514.8
2016-Dec-01 11:33N 59°00' E 010°56'8 8.3
2016-Dec-01 10:34N 58°56' E 011°10'5 5.2
2016-Dec-01 09:33N 58°58' E 011°01'1515.1
2016-Dec-01 08:34N 59°01' E 010°32'1211.7
2016-Dec-01 07:34N 59°07' E 010°14'1 1.1
2016-Dec-01 06:33N 59°06' E 010°14'2928.8
2016-Dec-01 05:32N 58°56' E 011°08'1 1.3
2016-Dec-01 04:33N 58°56' E 011°10'11 8.1
2016-Dec-01 03:10N 59°01' E 010°51'610.3
2016-Dec-01 02:32N 59°01' E 010°38'1010.1
2016-Dec-01 01:33N 59°01' E 010°19'7 7.0
2016-Dec-01 00:33N 59°08' E 010°14'0 0.0
2016-Nov-30 23:33N 59°08' E 010°14'6 6.1
2016-Nov-30 22:33N 59°02' E 010°16'5 4.7
2016-Nov-30 21:34N 59°06' E 010°14'0 0.1
2016-Nov-30 20:34N 59°06' E 010°14'2 2.0
2016-Nov-30 19:33N 59°04' E 010°15'1414.4
2016-Nov-30 18:34N 59°01' E 010°42'1514.6
2016-Nov-30 17:33N 58°56' E 011°08'1 1.3
2016-Nov-30 16:33N 58°56' E 011°06'1514.9
2016-Nov-30 15:34N 59°01' E 010°39'1313.4
2016-Nov-30 14:34N 59°06' E 010°14'2 1.9
2016-Nov-30 13:34N 59°08' E 010°14'1010.0
2016-Nov-30 12:33N 59°01' E 010°28'1514.6
2016-Nov-30 11:34N 59°00' E 010°56'8 8.4
2016-Nov-30 10:34N 58°56' E 011°10'5 4.9
2016-Nov-30 09:33N 58°58' E 011°02'1514.7
2016-Nov-30 08:33N 59°01' E 010°34'1212.1
2016-Nov-30 07:33N 59°07' E 010°14'1 0.7
2016-Nov-30 06:33N 59°06' E 010°14'0 0.1
2016-Nov-30 05:33N 59°06' E 010°14'0 0.0
2016-Nov-30 04:34N 59°06' E 010°14'0 0.0
2016-Nov-30 03:33N 59°06' E 010°14'0 0.0
2016-Nov-30 02:33N 59°06' E 010°14'0 0.0
2016-Nov-30 01:33N 59°06' E 010°14'0 0.0
2016-Nov-30 00:33N 59°06' E 010°14'0 0.0
2016-Nov-29 23:33N 59°06' E 010°14'1 1.2
2016-Nov-29 22:32N 59°07' E 010°14'2 1.7
2016-Nov-29 21:33N 59°06' E 010°14'1 0.9
2016-Nov-29 20:34N 59°07' E 010°14'4 3.9
2016-Nov-29 19:34N 59°03' E 010°15'1414.4
2016-Nov-29 18:34N 59°02' E 010°43'1414.2
2016-Nov-29 17:34N 58°56' E 011°08'2 1.7
2016-Nov-29 16:34N 58°56' E 011°05'1414.2
2016-Nov-29 15:34N 59°01' E 010°39'1413.6
2016-Nov-29 14:34N 59°05' E 010°14'2 2.2
2016-Nov-29 13:34N 59°08' E 010°14'10 9.7
2016-Nov-29 12:33N 59°01' E 010°27'1514.7
2016-Nov-29 11:34N 59°00' E 010°56'9 8.8
2016-Nov-29 10:33N 58°56' E 011°10'5 5.0
2016-Nov-29 09:33N 58°58' E 011°02'1514.7
2016-Nov-29 08:34N 59°01' E 010°33'1212.0
2016-Nov-29 07:33N 59°07' E 010°14'1 0.9
2016-Nov-29 06:34N 59°06' E 010°14'1211.5
2016-Nov-29 05:33N 59°01' E 010°34'1210.8
2016-Nov-29 04:29N 59°06' E 010°14'1 1.5
2016-Nov-29 03:33N 59°08' E 010°14'1 1.4
2016-Nov-29 02:33N 59°06' E 010°14'0 0.0
2016-Nov-29 01:33N 59°06' E 010°14'0 0.0
2016-Nov-29 00:32N 59°06' E 010°14'0 0.0
2016-Nov-28 23:34N 59°06' E 010°14'0 0.0
2016-Nov-28 22:33N 59°06' E 010°14'0 0.0
2016-Nov-28 21:33N 59°06' E 010°14'0 0.0
2016-Nov-28 20:33N 59°06' E 010°14'1 1.2
2016-Nov-28 19:33N 59°05' E 010°15'1414.0
2016-Nov-28 18:34N 59°01' E 010°41'1514.7
2016-Nov-28 17:33N 58°56' E 011°08'1 1.2
2016-Nov-28 16:34N 58°56' E 011°05'1414.4
2016-Nov-28 15:33N 59°01' E 010°39'1313.2
2016-Nov-28 14:33N 59°05' E 010°14'2 2.5
2016-Nov-28 13:34N 59°08' E 010°14'10 9.6
2016-Nov-28 12:34N 59°01' E 010°27'1515.0
2016-Nov-28 11:33N 59°00' E 010°56'8 8.5
2016-Nov-28 10:33N 58°56' E 011°10'5 4.7
2016-Nov-28 09:34N 58°58' E 011°02'1414.1
2016-Nov-28 08:34N 59°01' E 010°35'1312.6
2016-Nov-28 07:34N 59°07' E 010°14'1 0.7
2016-Nov-28 06:34N 59°06' E 010°14'1414.4
2016-Nov-28 05:33N 59°01' E 010°40'1410.0
2016-Nov-28 04:07N 59°06' E 010°14'1 2.5
2016-Nov-28 03:33N 59°08' E 010°14'0 0.0
2016-Nov-28 02:32N 59°08' E 010°14'31 7.9
2016-Nov-27 22:33N 58°56' E 011°10'0 0.1
2016-Nov-27 21:33N 58°56' E 011°10'3131.0
2016-Nov-27 20:34N 59°06' E 010°14'1 1.3
2016-Nov-27 19:34N 59°05' E 010°15'1413.9
2016-Nov-27 18:34N 59°01' E 010°41'  

Dump ship's entire track history